createdAt,value
2023-04-13T00:00:11.415Z,93913.44
2023-04-13T00:01:11.414Z,93863.59
2023-04-13T00:02:10.408Z,93933.25
2023-04-13T00:03:09.072Z,93932.81
2023-04-13T00:04:06.253Z,93909.09
2023-04-13T00:05:03.746Z,93831.63
2023-04-13T00:06:02.996Z,93923.88
2023-04-13T00:07:03.027Z,93934.13
2023-04-13T00:08:04.662Z,93923.19
2023-04-13T00:09:01.426Z,93935.28
2023-04-13T00:09:58.608Z,93872.53
2023-04-13T00:10:55.694Z,93932.84
2023-04-13T00:11:52.375Z,93914.00
2023-04-13T00:12:50.157Z,93934.16
2023-04-13T00:13:47.380Z,93938.56
2023-04-13T00:14:44.223Z,93936.44
2023-04-13T00:15:43.176Z,93944.13
2023-04-13T00:16:40.059Z,93936.88
2023-04-13T00:17:38.026Z,93928.16
2023-04-13T00:18:34.804Z,93867.91
2023-04-13T00:19:34.712Z,93858.09
2023-04-13T00:20:31.530Z,93911.56
2023-04-13T00:21:28.298Z,93939.16
2023-04-13T00:22:27.940Z,93923.13
2023-04-13T00:23:24.681Z,93928.06
2023-04-13T00:24:22.400Z,93829.19
2023-04-13T00:25:19.357Z,93871.00
2023-04-13T00:26:16.543Z,93913.06
2023-04-13T00:27:13.669Z,93906.22
2023-04-13T00:28:10.431Z,93936.31
2023-04-13T00:29:07.553Z,93930.09
2023-04-13T00:30:05.331Z,93834.94
2023-04-13T00:31:02.791Z,93946.41
2023-04-13T00:31:59.623Z,93899.66
2023-04-13T00:32:56.618Z,93948.19
2023-04-13T00:33:53.450Z,93949.84
2023-04-13T00:34:50.302Z,93900.94
2023-04-13T00:35:47.290Z,93953.31
2023-04-13T00:36:44.006Z,93886.50
2023-04-13T00:37:43.241Z,93889.16
2023-04-13T00:38:42.016Z,93921.94
2023-04-13T00:39:41.033Z,93959.13
2023-04-13T00:40:38.388Z,93949.06
2023-04-13T00:41:35.543Z,93919.91
2023-04-13T00:42:32.251Z,93952.50
2023-04-13T00:43:28.961Z,93926.13
2023-04-13T00:44:25.817Z,93921.97
2023-04-13T00:45:22.679Z,93936.13
2023-04-13T00:46:21.094Z,93943.56
2023-04-13T00:47:26.549Z,93888.13
2023-04-13T00:48:23.503Z,93943.09
2023-04-13T00:49:22.746Z,93939.78
2023-04-13T00:50:21.192Z,93942.00
2023-04-13T00:51:18.502Z,93940.09
2023-04-13T00:52:16.135Z,93882.84
2023-04-13T00:53:13.929Z,93898.19
2023-04-13T00:54:16.835Z,93947.13
2023-04-13T00:55:14.924Z,93943.75
2023-04-13T00:56:13.497Z,93916.28
2023-04-13T00:57:11.543Z,93919.31
2023-04-13T00:58:09.176Z,93941.03
2023-04-13T00:59:07.657Z,93925.66
2023-04-13T01:00:09.371Z,93945.47
2023-04-13T01:01:06.375Z,93899.81
2023-04-13T01:02:05.688Z,93944.41
2023-04-13T01:03:02.825Z,93941.41
2023-04-13T01:03:59.898Z,93882.13
2023-04-13T01:04:57.629Z,93943.50
2023-04-13T01:06:01.611Z,93935.91
2023-04-13T01:07:12.959Z,93928.44
2023-04-13T01:08:22.757Z,93942.88
2023-04-13T01:09:31.129Z,93929.91
2023-04-13T01:10:43.656Z,93945.06
2023-04-13T01:11:45.624Z,93945.19
2023-04-13T01:13:05.733Z,93949.34
2023-04-13T01:14:26.275Z,93931.91
2023-04-13T01:15:23.875Z,93954.22
2023-04-13T01:16:31.081Z,93950.72
2023-04-13T01:18:52.498Z,93911.69
2023-04-13T01:20:13.420Z,93911.97
2023-04-13T01:21:14.879Z,93897.53
2023-04-13T01:22:14.539Z,93954.44
2023-04-13T01:23:27.515Z,93929.03
2023-04-13T01:24:53.542Z,93945.38
2023-04-13T01:25:59.601Z,93905.00
2023-04-13T01:27:22.863Z,93943.03
2023-04-13T01:28:22.654Z,93939.97
2023-04-13T01:29:19.770Z,93935.97
2023-04-13T01:30:23.587Z,93897.53
2023-04-13T01:31:21.234Z,93952.63
2023-04-13T01:32:18.092Z,93915.50
2023-04-13T01:33:16.188Z,93947.94
2023-04-13T01:34:13.294Z,93958.88
2023-04-13T01:35:10.602Z,93883.66
2023-04-13T01:36:11.462Z,93909.50
2023-04-13T01:37:10.128Z,93912.06
2023-04-13T01:38:08.763Z,93913.38
2023-04-13T01:39:05.784Z,93915.47
2023-04-13T01:40:11.275Z,93956.72
2023-04-13T01:41:08.805Z,93947.28
2023-04-13T01:42:06.159Z,93957.38
2023-04-13T01:43:03.596Z,93926.38
2023-04-13T01:44:00.825Z,93904.50
2023-04-13T01:44:57.792Z,93952.78
2023-04-13T01:46:08.212Z,93947.75
2023-04-13T01:47:16.659Z,93948.84
2023-04-13T01:48:39.227Z,93942.78
2023-04-13T01:49:37.480Z,93939.13
2023-04-13T01:50:40.538Z,93878.84
2023-04-13T01:51:38.958Z,93936.59
2023-04-13T01:52:41.117Z,93944.47
2023-04-13T01:53:42.643Z,93938.41
2023-04-13T01:54:41.974Z,93868.94
2023-04-13T01:55:41.963Z,93946.00
2023-04-13T01:56:40.465Z,93932.34
2023-04-13T01:57:41.192Z,93942.13
2023-04-13T01:58:38.136Z,93934.50
2023-04-13T01:59:34.961Z,93939.44
2023-04-13T02:00:41.090Z,93951.25
2023-04-13T02:01:38.911Z,93917.16
2023-04-13T02:02:35.817Z,93950.16
2023-04-13T02:03:33.909Z,93871.25
2023-04-13T02:04:30.818Z,93951.75
2023-04-13T02:05:27.548Z,93928.78
2023-04-13T02:06:24.698Z,93919.94
2023-04-13T02:07:21.453Z,93954.16
2023-04-13T02:08:18.540Z,93889.22
2023-04-13T02:09:15.633Z,93946.06
2023-04-13T02:10:12.461Z,93955.63
2023-04-13T02:11:12.543Z,93902.34
2023-04-13T02:12:09.676Z,93959.72
2023-04-13T02:13:07.172Z,93888.81
2023-04-13T02:14:04.973Z,93954.28
2023-04-13T02:15:01.852Z,93952.78
2023-04-13T02:15:59.091Z,93956.16
2023-04-13T02:16:55.857Z,93910.75
2023-04-13T02:17:53.891Z,93839.69
2023-04-13T02:18:51.366Z,93955.22
2023-04-13T02:19:48.172Z,93773.88
2023-04-13T02:20:44.939Z,93950.06
2023-04-13T02:21:42.200Z,93954.50
2023-04-13T02:22:39.564Z,93966.72
2023-04-13T02:23:37.824Z,93838.53
2023-04-13T02:24:34.564Z,93957.22
2023-04-13T02:25:31.294Z,93921.34
2023-04-13T02:26:28.532Z,93876.84
2023-04-13T02:27:25.340Z,93962.13
2023-04-13T02:28:22.060Z,93962.34
2023-04-13T02:29:18.741Z,93957.09
2023-04-13T02:30:17.352Z,93930.41
2023-04-13T02:31:19.729Z,93958.81
2023-04-13T02:32:16.659Z,93961.25
2023-04-13T02:33:13.501Z,93956.03
2023-04-13T02:34:11.196Z,93964.28
2023-04-13T02:35:10.165Z,93960.56
2023-04-13T02:36:07.330Z,93953.25
2023-04-13T02:37:04.054Z,93949.13
2023-04-13T02:38:00.832Z,93922.56
2023-04-13T02:38:57.631Z,93960.28
2023-04-13T02:39:54.385Z,93959.88
2023-04-13T02:41:03.690Z,93962.56
2023-04-13T02:42:02.360Z,93964.13
2023-04-13T02:43:00.109Z,93948.72
2023-04-13T02:43:57.367Z,93966.41
2023-04-13T02:44:54.289Z,93944.31
2023-04-13T02:45:51.242Z,93958.28
2023-04-13T02:46:48.017Z,93967.25
2023-04-13T02:47:45.280Z,93964.94
2023-04-13T02:48:42.283Z,93901.53
2023-04-13T02:49:39.060Z,93894.81
2023-04-13T02:50:35.880Z,93941.38
2023-04-13T02:51:32.816Z,93963.53
2023-04-13T02:52:29.733Z,93961.41
2023-04-13T02:53:27.177Z,93974.16
2023-04-13T02:54:24.460Z,93973.72
2023-04-13T02:55:21.332Z,93970.16
2023-04-13T02:56:18.153Z,93949.47
2023-04-13T02:57:15.317Z,93905.72
2023-04-13T02:58:12.584Z,93908.63
2023-04-13T02:59:09.995Z,93957.28
2023-04-13T03:00:10.771Z,93962.88
2023-04-13T03:01:07.876Z,93974.09
2023-04-13T03:02:04.651Z,93979.78
2023-04-13T03:03:03.744Z,93975.00
2023-04-13T03:04:01.236Z,93940.13
2023-04-13T03:04:59.446Z,93981.44
2023-04-13T03:05:56.214Z,93978.94
2023-04-13T03:06:54.445Z,93942.22
2023-04-13T03:07:51.161Z,93930.63
2023-04-13T03:08:47.997Z,93981.41
2023-04-13T03:09:48.280Z,93982.38
2023-04-13T03:10:45.055Z,93956.00
2023-04-13T03:11:42.461Z,93936.56
2023-04-13T03:12:39.363Z,93990.31
2023-04-13T03:13:36.120Z,93982.25
2023-04-13T03:14:33.320Z,93922.91
2023-04-13T03:15:30.915Z,93988.50
2023-04-13T03:16:28.331Z,93948.94
2023-04-13T03:17:25.382Z,93942.72
2023-04-13T03:18:23.858Z,93983.88
2023-04-13T03:19:20.626Z,93975.09
2023-04-13T03:20:20.730Z,93912.03
2023-04-13T03:21:17.504Z,93997.53
2023-04-13T03:22:14.210Z,94002.66
2023-04-13T03:23:11.883Z,93993.22
2023-04-13T03:24:08.948Z,93885.44
2023-04-13T03:25:07.176Z,93961.00
2023-04-13T03:26:05.458Z,93920.66
2023-04-13T03:27:02.880Z,93876.59
2023-04-13T03:27:59.768Z,93999.03
2023-04-13T03:28:56.673Z,93998.50
2023-04-13T03:29:53.422Z,93876.56
2023-04-13T03:30:50.297Z,93906.41
2023-04-13T03:31:47.132Z,93995.91
2023-04-13T03:32:44.039Z,93983.97
2023-04-13T03:33:41.160Z,93929.88
2023-04-13T03:34:43.812Z,93977.78
2023-04-13T03:35:40.775Z,93949.44
2023-04-13T03:36:37.624Z,93991.59
2023-04-13T03:37:40.487Z,93878.50
2023-04-13T03:38:37.518Z,93996.00
2023-04-13T03:39:34.402Z,93987.53
2023-04-13T03:40:31.367Z,93982.34
2023-04-13T03:41:28.078Z,93979.53
2023-04-13T03:42:24.834Z,93947.56
2023-04-13T03:43:21.654Z,93999.25
2023-04-13T03:44:18.483Z,93991.25
2023-04-13T03:45:15.467Z,93946.03
2023-04-13T03:46:13.313Z,93933.84
2023-04-13T03:47:10.238Z,94004.84
2023-04-13T03:48:07.246Z,93906.19
2023-04-13T03:49:09.334Z,94002.34
2023-04-13T03:50:06.771Z,93960.72
2023-04-13T03:51:03.738Z,93982.59
2023-04-13T03:52:00.434Z,93993.97
2023-04-13T03:52:57.360Z,93985.38
2023-04-13T03:53:55.040Z,93998.22
2023-04-13T03:54:52.260Z,93988.91
2023-04-13T03:55:49.108Z,93971.91
2023-04-13T03:56:46.013Z,93993.38
2023-04-13T03:57:42.804Z,93998.38
2023-04-13T03:58:39.715Z,93983.97
2023-04-13T03:59:36.495Z,94000.41
2023-04-13T04:00:33.245Z,93969.94
2023-04-13T04:01:30.068Z,94002.41
2023-04-13T04:02:27.499Z,93959.28
2023-04-13T04:03:25.800Z,94003.06
2023-04-13T04:04:22.916Z,94002.22
2023-04-13T04:05:20.031Z,93988.66
2023-04-13T04:06:16.786Z,94008.91
2023-04-13T04:07:13.567Z,93979.31
2023-04-13T04:08:10.550Z,93959.91
2023-04-13T04:09:07.457Z,94013.25
2023-04-13T04:10:04.780Z,93990.97
2023-04-13T04:11:01.614Z,94007.31
2023-04-13T04:11:58.339Z,93952.06
2023-04-13T04:12:55.063Z,93977.13
2023-04-13T04:13:51.766Z,94008.81
2023-04-13T04:14:48.541Z,93972.75
2023-04-13T04:15:45.326Z,94003.78
2023-04-13T04:16:42.256Z,94006.44
2023-04-13T04:17:40.047Z,93934.72
2023-04-13T04:18:37.805Z,94004.78
2023-04-13T04:19:34.514Z,94006.72
2023-04-13T04:20:31.193Z,93955.38
2023-04-13T04:21:34.320Z,93986.78
2023-04-13T04:22:34.792Z,93971.41
2023-04-13T04:23:34.642Z,93995.69
2023-04-13T04:24:31.418Z,94006.16
2023-04-13T04:25:28.210Z,94006.28
2023-04-13T04:26:25.911Z,94000.75
2023-04-13T04:27:26.381Z,94009.53
2023-04-13T04:28:23.166Z,94012.34
2023-04-13T04:29:22.801Z,94019.91
2023-04-13T04:30:22.014Z,93942.34
2023-04-13T04:31:18.835Z,93997.06
2023-04-13T04:32:15.745Z,93951.91
2023-04-13T04:33:14.437Z,93954.44
2023-04-13T04:34:11.697Z,94018.94
2023-04-13T04:35:12.134Z,94022.06
2023-04-13T04:36:16.287Z,93983.22
2023-04-13T04:37:20.313Z,94015.13
2023-04-13T04:38:23.657Z,94017.34
2023-04-13T04:39:22.680Z,94029.31
2023-04-13T04:40:19.680Z,94028.97
2023-04-13T04:41:21.027Z,94024.75
2023-04-13T04:42:19.007Z,94016.97
2023-04-13T04:43:15.996Z,94030.75
2023-04-13T04:44:12.852Z,94031.78
2023-04-13T04:45:15.103Z,94024.44
2023-04-13T04:46:16.163Z,93930.69
2023-04-13T04:47:13.426Z,94031.34
2023-04-13T04:48:11.954Z,93989.00
2023-04-13T04:49:08.704Z,94032.47
2023-04-13T04:50:05.879Z,94034.41
2023-04-13T04:51:02.679Z,94033.69
2023-04-13T04:51:59.699Z,94022.97
2023-04-13T04:52:56.566Z,94000.91
2023-04-13T04:53:53.333Z,94026.13
2023-04-13T04:54:50.798Z,94024.16
2023-04-13T04:55:47.569Z,94014.72
2023-04-13T04:56:48.100Z,93995.50
2023-04-13T04:57:46.012Z,94038.91
2023-04-13T04:58:42.784Z,94037.19
2023-04-13T04:59:40.880Z,94005.81
2023-04-13T05:00:38.268Z,94023.81
2023-04-13T05:01:35.242Z,93979.72
2023-04-13T05:02:32.078Z,94023.09
2023-04-13T05:03:29.340Z,94015.94
2023-04-13T05:04:26.176Z,94018.88
2023-04-13T05:05:23.365Z,93976.63
2023-04-13T05:06:20.472Z,94019.34
2023-04-13T05:07:19.031Z,94005.19
2023-04-13T05:08:15.854Z,94015.94
2023-04-13T05:09:12.618Z,94032.84
2023-04-13T05:10:10.181Z,94030.81
2023-04-13T05:11:07.556Z,94006.63
2023-04-13T05:12:04.945Z,94025.50
2023-04-13T05:13:01.924Z,93988.22
2023-04-13T05:13:59.849Z,93976.69
2023-04-13T05:14:56.831Z,94006.34
2023-04-13T05:15:53.541Z,94029.69
2023-04-13T05:16:51.565Z,94025.38
2023-04-13T05:17:50.947Z,94003.31
2023-04-13T05:18:49.377Z,93962.31
2023-04-13T05:19:47.254Z,94023.41
2023-04-13T05:20:44.049Z,94019.22
2023-04-13T05:21:40.799Z,93994.66
2023-04-13T05:22:37.509Z,93992.69
2023-04-13T05:23:34.276Z,94031.09
2023-04-13T05:24:31.224Z,94022.94
2023-04-13T05:25:27.979Z,94022.00
2023-04-13T05:26:25.496Z,94022.81
2023-04-13T05:27:22.429Z,93972.25
2023-04-13T05:28:19.444Z,94003.31
2023-04-13T05:29:16.358Z,93985.00
2023-04-13T05:30:13.675Z,94021.78
2023-04-13T05:31:11.251Z,93966.72
2023-04-13T05:32:08.146Z,94011.28
2023-04-13T05:33:07.617Z,94024.91
2023-04-13T05:34:04.469Z,94024.19
2023-04-13T05:35:01.297Z,94009.16
2023-04-13T05:35:58.260Z,94016.84
2023-04-13T05:36:55.729Z,94020.91
2023-04-13T05:37:53.286Z,93994.97
2023-04-13T05:38:51.638Z,93980.28
2023-04-13T05:39:48.397Z,93970.50
2023-04-13T05:40:45.213Z,93972.03
2023-04-13T05:41:41.986Z,93974.50
2023-04-13T05:42:38.735Z,93981.84
2023-04-13T05:43:35.717Z,93956.50
2023-04-13T05:44:32.593Z,94011.28
2023-04-13T05:45:29.981Z,93996.88
2023-04-13T05:46:27.903Z,94016.53
2023-04-13T05:47:24.728Z,94019.28
2023-04-13T05:48:21.619Z,94019.53
2023-04-13T05:49:18.455Z,94023.31
2023-04-13T05:50:15.243Z,93901.63
2023-04-13T05:51:15.660Z,94032.13
2023-04-13T05:52:12.797Z,94024.75
2023-04-13T05:53:09.758Z,94023.22
2023-04-13T05:54:09.859Z,94018.94
2023-04-13T05:55:06.913Z,93956.16
2023-04-13T05:56:03.781Z,94012.63
2023-04-13T05:57:00.610Z,93994.59
2023-04-13T05:57:57.383Z,94016.41
2023-04-13T05:58:54.305Z,94004.59
2023-04-13T05:59:53.242Z,93980.84
2023-04-13T06:00:50.028Z,94032.41
2023-04-13T06:01:46.893Z,94032.84
2023-04-13T06:02:43.900Z,94015.84
2023-04-13T06:03:41.085Z,94030.28
2023-04-13T06:04:38.383Z,94027.16
2023-04-13T06:05:36.727Z,93982.28
2023-04-13T06:06:36.002Z,94026.13
2023-04-13T06:07:34.179Z,94007.97
2023-04-13T06:08:32.677Z,94027.41
2023-04-13T06:09:29.613Z,94022.91
2023-04-13T06:10:26.701Z,93986.75
2023-04-13T06:11:25.168Z,94004.13
2023-04-13T06:12:21.925Z,94027.81
2023-04-13T06:13:18.692Z,94011.38
2023-04-13T06:14:16.631Z,94014.00
2023-04-13T06:15:13.361Z,93880.63
2023-04-13T06:16:10.385Z,94003.88
2023-04-13T06:17:07.308Z,93999.50
2023-04-13T06:18:04.329Z,94010.69
2023-04-13T06:19:03.973Z,94038.50
2023-04-13T06:20:00.943Z,94030.13
2023-04-13T06:20:58.650Z,94031.97
2023-04-13T06:21:56.204Z,94032.31
2023-04-13T06:22:53.043Z,94032.94
2023-04-13T06:23:51.518Z,94023.69
2023-04-13T06:24:50.425Z,94014.88
2023-04-13T06:25:47.479Z,93988.41
2023-04-13T06:26:44.449Z,94032.91
2023-04-13T06:27:43.453Z,94033.81
2023-04-13T06:28:40.282Z,94032.00
2023-04-13T06:29:37.692Z,94016.91
2023-04-13T06:30:34.861Z,94017.34
2023-04-13T06:31:31.784Z,94032.25
2023-04-13T06:32:28.584Z,94037.69
2023-04-13T06:33:26.343Z,94039.47
2023-04-13T06:34:23.099Z,94037.41
2023-04-13T06:35:20.731Z,94039.75
2023-04-13T06:36:17.915Z,94044.69
2023-04-13T06:37:14.769Z,94021.19
2023-04-13T06:38:12.230Z,93963.88
2023-04-13T06:39:09.510Z,94036.22
2023-04-13T06:40:14.815Z,94022.31
2023-04-13T06:41:11.740Z,93986.97
2023-04-13T06:42:08.467Z,93981.88
2023-04-13T06:43:06.267Z,94042.84
2023-04-13T06:44:06.188Z,93924.03
2023-04-13T06:45:03.186Z,94039.16
2023-04-13T06:46:02.120Z,94022.28
2023-04-13T06:46:59.057Z,94042.09
2023-04-13T06:47:55.970Z,94026.59
2023-04-13T06:48:52.912Z,93992.00
2023-04-13T06:49:49.762Z,94016.16
2023-04-13T06:50:46.472Z,94030.84
2023-04-13T06:51:43.521Z,93984.31
2023-04-13T06:52:43.930Z,94027.94
2023-04-13T06:53:41.422Z,93952.38
2023-04-13T06:54:38.300Z,93955.72
2023-04-13T06:55:35.019Z,94033.94
2023-04-13T06:56:31.823Z,94032.72
2023-04-13T06:57:29.956Z,94029.72
2023-04-13T06:58:27.226Z,94015.72
2023-04-13T06:59:24.042Z,94006.03
2023-04-13T07:00:29.690Z,94001.50
2023-04-13T07:01:28.232Z,94009.03
2023-04-13T07:02:26.265Z,94018.00
2023-04-13T07:03:23.304Z,94034.84
2023-04-13T07:04:28.604Z,94032.16
2023-04-13T07:05:31.967Z,94041.38
2023-04-13T07:06:29.151Z,94026.56
2023-04-13T07:07:25.991Z,94024.41
2023-04-13T07:08:22.946Z,93911.91
2023-04-13T07:09:19.813Z,94027.31
2023-04-13T07:10:16.768Z,94019.81
2023-04-13T07:11:14.438Z,94029.94
2023-04-13T07:12:11.875Z,94030.78
2023-04-13T07:13:08.679Z,93924.78
2023-04-13T07:14:05.493Z,94022.31
2023-04-13T07:15:02.234Z,93966.41
2023-04-13T07:15:59.075Z,93996.28
2023-04-13T07:16:55.903Z,94030.72
2023-04-13T07:17:52.746Z,93978.22
2023-04-13T07:18:49.719Z,94027.53
2023-04-13T07:19:47.815Z,94025.50
2023-04-13T07:20:44.706Z,94031.94
2023-04-13T07:21:41.514Z,94025.84
2023-04-13T07:22:38.425Z,93990.91
2023-04-13T07:23:35.222Z,94022.75
2023-04-13T07:24:34.584Z,93890.19
2023-04-13T07:25:33.784Z,93982.78
2023-04-13T07:26:30.724Z,93973.44
2023-04-13T07:27:28.034Z,93979.63
2023-04-13T07:28:25.665Z,93998.00
2023-04-13T07:29:22.635Z,94018.97
2023-04-13T07:30:19.464Z,93970.22
2023-04-13T07:31:16.712Z,93945.00
2023-04-13T07:32:13.518Z,94015.84
2023-04-13T07:33:11.137Z,94010.06
2023-04-13T07:34:07.885Z,94020.22
2023-04-13T07:35:05.246Z,93962.78
2023-04-13T07:36:02.200Z,94026.09
2023-04-13T07:37:01.376Z,93944.78
2023-04-13T07:37:58.289Z,93677.47
2023-04-13T07:38:55.366Z,93872.31
2023-04-13T07:39:52.242Z,93678.47
2023-04-13T07:40:49.142Z,93972.44
2023-04-13T07:41:49.155Z,93654.97
2023-04-13T07:42:50.220Z,93799.72
2023-04-13T07:43:47.264Z,93840.09
2023-04-13T07:44:47.032Z,93944.78
2023-04-13T07:45:44.112Z,93950.19
2023-04-13T07:46:41.651Z,94022.41
2023-04-13T07:47:38.615Z,93931.25
2023-04-13T07:48:36.155Z,94010.44
2023-04-13T07:49:40.800Z,93983.72
2023-04-13T07:50:44.326Z,94012.38
2023-04-13T07:51:41.794Z,94015.97
2023-04-13T07:52:38.505Z,94006.97
2023-04-13T07:53:35.373Z,94009.84
2023-04-13T07:54:36.068Z,93989.88
2023-04-13T07:55:32.877Z,94009.00
2023-04-13T07:56:31.212Z,93990.22
2023-04-13T07:57:28.563Z,93961.13
2023-04-13T07:58:25.651Z,93978.06
2023-04-13T07:59:23.528Z,93998.63
2023-04-13T08:00:23.038Z,93955.53
2023-04-13T08:01:21.536Z,93958.72
2023-04-13T08:02:18.396Z,93930.78
2023-04-13T08:03:16.045Z,93914.31
2023-04-13T08:04:13.209Z,93977.94
2023-04-13T08:05:10.827Z,93988.94
2023-04-13T08:06:08.626Z,94011.09
2023-04-13T08:07:06.234Z,93976.84
2023-04-13T08:08:03.579Z,94000.19
2023-04-13T08:09:03.580Z,93966.41
2023-04-13T08:10:07.713Z,93968.63
2023-04-13T08:11:04.855Z,94003.91
2023-04-13T08:12:02.637Z,93997.41
2023-04-13T08:13:02.522Z,93983.66
2023-04-13T08:14:02.391Z,93963.34
2023-04-13T08:14:59.100Z,93959.00
2023-04-13T08:16:00.271Z,93997.09
2023-04-13T08:17:01.414Z,93999.25
2023-04-13T08:17:59.804Z,93995.81
2023-04-13T08:18:57.236Z,93990.88
2023-04-13T08:19:59.768Z,93995.28
2023-04-13T08:21:00.172Z,93932.75
2023-04-13T08:21:57.835Z,93887.63
2023-04-13T08:22:54.832Z,93912.41
2023-04-13T08:23:51.540Z,93983.50
2023-04-13T08:24:51.198Z,93983.22
2023-04-13T08:25:51.214Z,93873.25
2023-04-13T08:26:52.349Z,93985.28
2023-04-13T08:27:49.129Z,93975.50
2023-04-13T08:28:47.811Z,93979.78
2023-04-13T08:29:44.538Z,93943.31
2023-04-13T08:30:42.520Z,93990.28
2023-04-13T08:31:40.779Z,93986.84
2023-04-13T08:32:37.818Z,93961.47
2023-04-13T08:33:34.642Z,93935.00
2023-04-13T08:34:31.686Z,93979.44
2023-04-13T08:35:28.839Z,93938.50
2023-04-13T08:36:27.998Z,93903.91
2023-04-13T08:37:24.835Z,93977.72
2023-04-13T08:38:21.841Z,93849.41
2023-04-13T08:39:18.719Z,93973.19
2023-04-13T08:40:18.556Z,93979.00
2023-04-13T08:41:17.583Z,93973.72
2023-04-13T08:42:16.429Z,93932.81
2023-04-13T08:43:13.480Z,93980.63
2023-04-13T08:44:13.520Z,93914.94
2023-04-13T08:45:10.907Z,93944.59
2023-04-13T08:46:07.934Z,93934.50
2023-04-13T08:47:05.049Z,93959.91
2023-04-13T08:48:02.708Z,93956.41
2023-04-13T08:49:02.058Z,93970.16
2023-04-13T08:50:01.124Z,93871.19
2023-04-13T08:51:01.473Z,93974.81
2023-04-13T08:52:00.102Z,93916.25
2023-04-13T08:52:56.899Z,93966.34
2023-04-13T08:53:53.867Z,93967.44
2023-04-13T08:54:51.186Z,93968.41
2023-04-13T08:55:52.641Z,93960.50
2023-04-13T08:56:50.297Z,93931.13
2023-04-13T08:57:53.249Z,93947.06
2023-04-13T08:58:57.108Z,93925.31
2023-04-13T08:59:56.626Z,93936.97
2023-04-13T09:00:54.305Z,93953.66
2023-04-13T09:01:52.621Z,93967.44
2023-04-13T09:03:04.777Z,93965.03
2023-04-13T09:04:11.324Z,93931.41
2023-04-13T09:05:16.338Z,93883.19
2023-04-13T09:06:18.754Z,93938.81
2023-04-13T09:07:22.499Z,93841.59
2023-04-13T09:08:23.535Z,93956.00
2023-04-13T09:09:21.358Z,93928.94
2023-04-13T09:10:21.814Z,93946.69
2023-04-13T09:11:18.598Z,93943.81
2023-04-13T09:12:15.427Z,93936.66
2023-04-13T09:13:19.836Z,93948.03
2023-04-13T09:14:21.474Z,93946.19
2023-04-13T09:15:18.700Z,93945.63
2023-04-13T09:16:16.369Z,93897.94
2023-04-13T09:17:32.560Z,93935.50
2023-04-13T09:18:29.445Z,93950.88
2023-04-13T09:19:33.967Z,93942.91
2023-04-13T09:20:30.689Z,93944.03
2023-04-13T09:21:42.303Z,93948.53
2023-04-13T09:22:39.228Z,93946.84
2023-04-13T09:23:36.109Z,93946.06
2023-04-13T09:24:41.411Z,93917.38
2023-04-13T09:25:38.681Z,93955.00
2023-04-13T09:26:49.125Z,93912.75
2023-04-13T09:27:45.864Z,93940.63
2023-04-13T09:28:49.971Z,93873.34
2023-04-13T09:29:52.123Z,93896.09
2023-04-13T09:30:48.999Z,93894.50
2023-04-13T09:31:47.568Z,93871.81
2023-04-13T09:32:44.483Z,93853.16
2023-04-13T09:33:52.745Z,93922.03
2023-04-13T09:35:06.357Z,93917.91
2023-04-13T09:36:10.811Z,93929.03
2023-04-13T09:37:14.172Z,93862.13
2023-04-13T09:38:15.496Z,93927.44
2023-04-13T09:39:14.238Z,93889.72
2023-04-13T09:40:13.357Z,93927.31
2023-04-13T09:41:10.804Z,93924.97
2023-04-13T09:42:12.044Z,93894.72
2023-04-13T09:43:09.724Z,93924.31
2023-04-13T09:44:18.836Z,93914.50
2023-04-13T09:45:15.646Z,93915.84
2023-04-13T09:46:14.238Z,93898.34
2023-04-13T09:47:12.978Z,93896.03
2023-04-13T09:48:21.383Z,93901.94
2023-04-13T09:50:28.286Z,93912.59
2023-04-13T09:51:26.068Z,93880.53
2023-04-13T09:52:24.278Z,93905.53
2023-04-13T09:53:20.999Z,93779.34
2023-04-13T09:54:21.988Z,93889.72
2023-04-13T09:55:21.611Z,93889.38
2023-04-13T09:56:18.550Z,93904.59
2023-04-13T09:57:27.217Z,93895.94
2023-04-13T09:58:25.573Z,93894.59
2023-04-13T09:59:23.527Z,93881.13
2023-04-13T10:00:21.658Z,93895.47
2023-04-13T10:01:18.995Z,93857.81
2023-04-13T10:02:19.824Z,93881.94
2023-04-13T10:03:19.083Z,93888.22
2023-04-13T10:04:16.417Z,93888.69
2023-04-13T10:05:14.002Z,93856.91
2023-04-13T10:06:11.016Z,93838.34
2023-04-13T10:07:07.891Z,93892.31
2023-04-13T10:08:06.317Z,93888.53
2023-04-13T10:09:03.238Z,93898.69
2023-04-13T10:10:03.756Z,93868.84
2023-04-13T10:11:02.172Z,93885.59
2023-04-13T10:12:00.084Z,93851.44
2023-04-13T10:13:01.763Z,93880.81
2023-04-13T10:14:02.841Z,93889.53
2023-04-13T10:15:33.127Z,93890.53
2023-04-13T10:16:58.855Z,93891.06
2023-04-13T10:18:14.244Z,93882.38
2023-04-13T10:19:21.600Z,93898.72
2023-04-13T10:20:19.267Z,93831.31
2023-04-13T10:21:16.946Z,93890.84
2023-04-13T10:22:16.131Z,93870.97
2023-04-13T10:23:13.645Z,93892.41
2023-04-13T10:24:12.887Z,93865.06
2023-04-13T10:25:29.089Z,93888.09
2023-04-13T10:26:36.697Z,93881.94
2023-04-13T10:27:36.511Z,93845.50
2023-04-13T10:28:43.930Z,93883.03
2023-04-13T10:29:40.899Z,93879.88
2023-04-13T10:30:49.569Z,93878.59
2023-04-13T10:31:48.875Z,93852.84
2023-04-13T10:32:45.999Z,93882.25
2023-04-13T10:33:50.704Z,93878.72
2023-04-13T10:34:47.587Z,93874.91
2023-04-13T10:35:59.023Z,93855.63
2023-04-13T10:36:58.595Z,93866.72
2023-04-13T10:37:58.582Z,93867.44
2023-04-13T10:38:55.604Z,93865.50
2023-04-13T10:40:06.847Z,93852.38
2023-04-13T10:41:03.871Z,93867.00
2023-04-13T10:42:02.811Z,93866.06
2023-04-13T10:42:59.664Z,93832.66
2023-04-13T10:44:08.034Z,93867.28
2023-04-13T10:45:05.428Z,93855.72
2023-04-13T10:46:09.305Z,93859.22
2023-04-13T10:47:08.399Z,93850.22
2023-04-13T10:48:06.175Z,93855.31
2023-04-13T10:49:04.706Z,93860.94
2023-04-13T10:50:01.486Z,93808.69
2023-04-13T10:51:01.629Z,93739.25
2023-04-13T10:51:58.395Z,93857.28
2023-04-13T10:53:02.014Z,93799.81
2023-04-13T10:54:05.645Z,93858.59
2023-04-13T10:55:05.216Z,93842.78
2023-04-13T10:56:02.470Z,93852.13
2023-04-13T10:57:02.567Z,93842.69
2023-04-13T10:58:00.846Z,93859.19
2023-04-13T10:58:57.871Z,93824.22
2023-04-13T11:00:04.408Z,93808.81
2023-04-13T11:01:02.745Z,93850.59
2023-04-13T11:02:00.823Z,93847.94
2023-04-13T11:02:59.237Z,93845.41
2023-04-13T11:04:04.446Z,93844.72
2023-04-13T11:05:04.160Z,93810.31
2023-04-13T11:06:01.099Z,93796.34
2023-04-13T11:06:58.074Z,93846.28
2023-04-13T11:07:55.623Z,93800.13
2023-04-13T11:09:01.654Z,93782.47
2023-04-13T11:10:03.299Z,93784.97
2023-04-13T11:11:00.788Z,93737.63
2023-04-13T11:11:57.658Z,93780.22
2023-04-13T11:12:58.939Z,93747.44
2023-04-13T11:13:55.812Z,93836.31
2023-04-13T11:14:52.543Z,93831.69
2023-04-13T11:15:49.860Z,93808.22
2023-04-13T11:16:46.767Z,93825.25
2023-04-13T11:17:46.783Z,93830.88
2023-04-13T11:18:43.601Z,93794.19
2023-04-13T11:19:52.362Z,93820.22
2023-04-13T11:20:49.315Z,93819.34
2023-04-13T11:21:54.118Z,93665.47
2023-04-13T11:22:50.887Z,93776.41
2023-04-13T11:23:53.983Z,93819.34
2023-04-13T11:24:51.920Z,93811.81
2023-04-13T11:25:58.368Z,93812.78
2023-04-13T11:26:55.512Z,93808.53
2023-04-13T11:28:00.211Z,93790.53
2023-04-13T11:28:58.140Z,93820.28
2023-04-13T11:30:06.521Z,93814.78
2023-04-13T11:31:03.367Z,93823.84
2023-04-13T11:32:00.111Z,93826.75
2023-04-13T11:33:02.850Z,93822.66
2023-04-13T11:33:59.889Z,93796.84
2023-04-13T11:35:10.977Z,93815.34